createdAt,value
2018-10-06T00:01:57.927Z,6.03
2018-10-06T00:07:01.124Z,5.91
2018-10-06T00:12:04.326Z,5.75
2018-10-06T00:17:07.592Z,5.63
2018-10-06T00:22:10.772Z,5.51
2018-10-06T00:27:13.970Z,5.40
2018-10-06T00:32:17.349Z,5.47
2018-10-06T00:37:20.556Z,5.39
2018-10-06T00:42:23.759Z,5.26
2018-10-06T00:47:26.886Z,5.21
2018-10-06T00:52:30.245Z,5.05
2018-10-06T00:57:33.481Z,4.97
2018-10-06T01:02:36.739Z,4.90
2018-10-06T01:07:39.854Z,4.92
2018-10-06T01:12:43.046Z,4.98
2018-10-06T01:17:46.208Z,4.77
2018-10-06T01:22:49.343Z,4.81
2018-10-06T01:27:52.543Z,4.89
2018-10-06T01:32:55.713Z,4.98
2018-10-06T01:37:59.025Z,5.23
2018-10-06T01:43:02.431Z,5.33
2018-10-06T01:48:05.656Z,5.27
2018-10-06T01:53:08.899Z,5.27
2018-10-06T01:58:12.131Z,5.14
2018-10-06T02:03:15.271Z,5.10
2018-10-06T02:08:18.454Z,5.03
2018-10-06T02:13:21.590Z,4.94
2018-10-06T02:18:24.820Z,5.07
2018-10-06T02:23:27.962Z,5.69
2018-10-06T02:28:31.238Z,5.95
2018-10-06T02:33:34.644Z,5.78
2018-10-06T02:38:38.238Z,5.52
2018-10-06T02:43:41.576Z,5.24
2018-10-06T02:48:44.716Z,5.02
2018-10-06T02:53:47.833Z,5.29
2018-10-06T02:58:50.956Z,5.64
2018-10-06T03:03:54.245Z,5.66
2018-10-06T03:08:57.417Z,5.49
2018-10-06T03:14:00.595Z,5.31
2018-10-06T03:19:03.830Z,5.25
2018-10-06T03:24:07.286Z,5.14
2018-10-06T03:29:10.490Z,5.18
2018-10-06T03:34:13.643Z,5.17
2018-10-06T03:39:17.097Z,5.19
2018-10-06T03:44:20.337Z,5.47
2018-10-06T03:49:23.516Z,5.61
2018-10-06T03:54:26.677Z,5.85
2018-10-06T03:59:30.577Z,5.98
2018-10-06T04:04:33.875Z,5.95
2018-10-06T04:09:37.159Z,6.09
2018-10-06T04:14:40.359Z,6.23
2018-10-06T04:19:43.566Z,6.36
2018-10-06T04:24:46.721Z,6.53
2018-10-06T04:29:49.885Z,6.72
2018-10-06T04:34:53.092Z,6.96
2018-10-06T04:39:56.304Z,7.03
2018-10-06T04:44:59.538Z,7.09
2018-10-06T04:50:02.795Z,7.09
2018-10-06T04:55:06.094Z,6.98
2018-10-06T05:00:09.308Z,6.79
2018-10-06T05:05:13.281Z,6.56
2018-10-06T05:10:17.090Z,6.54
2018-10-06T05:15:20.276Z,6.51
2018-10-06T05:20:23.460Z,6.50
2018-10-06T05:25:26.811Z,6.51
2018-10-06T05:30:30.526Z,6.50
2018-10-06T05:35:33.748Z,6.55
2018-10-06T05:40:37.085Z,6.54
2018-10-06T05:45:40.253Z,6.71
2018-10-06T05:50:44.063Z,6.98
2018-10-06T05:55:47.522Z,7.09
2018-10-06T06:00:50.722Z,7.33
2018-10-06T06:05:54.031Z,7.61
2018-10-06T06:10:57.226Z,7.85
2018-10-06T06:16:00.472Z,8.18
2018-10-06T06:21:03.903Z,8.51
2018-10-06T06:26:07.205Z,8.92
2018-10-06T06:31:10.418Z,9.19
2018-10-06T06:36:13.662Z,9.47
2018-10-06T06:41:16.913Z,9.71
2018-10-06T06:46:20.213Z,10.13
2018-10-06T06:51:23.505Z,10.44
2018-10-06T06:56:26.658Z,10.75
2018-10-06T07:01:30.563Z,11.09
2018-10-06T07:06:33.865Z,11.36
2018-10-06T07:11:37.074Z,11.66
2018-10-06T07:16:40.337Z,11.97
2018-10-06T07:21:43.534Z,12.21
2018-10-06T07:26:46.762Z,12.36
2018-10-06T07:31:49.968Z,12.54
2018-10-06T07:36:53.199Z,12.76
2018-10-06T07:41:56.380Z,13.00
2018-10-06T07:46:59.643Z,13.06
2018-10-06T07:52:03.237Z,13.24
2018-10-06T07:57:06.583Z,13.52
2018-10-06T08:02:09.943Z,13.78
2018-10-06T08:07:13.235Z,14.03
2018-10-06T08:12:16.418Z,14.22
2018-10-06T08:17:19.582Z,14.53
2018-10-06T08:22:22.790Z,14.77
2018-10-06T08:27:26.000Z,14.92
2018-10-06T08:32:29.353Z,15.32
2018-10-06T08:37:32.608Z,15.51
2018-10-06T08:42:35.829Z,15.71
2018-10-06T08:47:39.256Z,15.74
2018-10-06T08:52:42.507Z,15.93
2018-10-06T08:57:45.662Z,15.94
2018-10-06T09:02:48.950Z,16.09
2018-10-06T09:07:52.185Z,16.36
2018-10-06T09:12:55.316Z,16.74
2018-10-06T09:17:58.547Z,16.94
2018-10-06T09:23:01.775Z,17.06
2018-10-06T09:28:05.383Z,17.19
2018-10-06T09:33:08.620Z,17.47
2018-10-06T09:38:11.876Z,17.42
2018-10-06T09:43:15.141Z,18.28
2018-10-06T09:48:18.360Z,20.85
2018-10-06T09:53:21.607Z,22.33
2018-10-06T09:58:24.767Z,22.49
2018-10-06T10:03:28.012Z,23.07
2018-10-06T10:08:31.243Z,24.22
2018-10-06T10:13:34.640Z,25.00
2018-10-06T10:18:38.117Z,26.00
2018-10-06T10:23:41.738Z,25.42
2018-10-06T10:28:44.937Z,25.79
2018-10-06T10:33:48.166Z,24.68
2018-10-06T10:38:51.472Z,24.02
2018-10-06T10:43:54.665Z,24.65
2018-10-06T10:48:57.818Z,23.89
2018-10-06T10:54:01.040Z,23.71
2018-10-06T10:59:04.507Z,23.31
2018-10-06T11:04:08.180Z,23.28
2018-10-06T11:09:11.515Z,23.20
2018-10-06T11:14:14.806Z,23.34
2018-10-06T11:19:18.047Z,23.57
2018-10-06T11:24:21.219Z,23.26
2018-10-06T11:29:24.434Z,22.77
2018-10-06T11:34:27.639Z,22.26
2018-10-06T11:39:31.091Z,22.66
2018-10-06T11:44:34.352Z,23.04
2018-10-06T11:49:37.611Z,23.45
2018-10-06T11:54:41.011Z,23.31
2018-10-06T11:59:44.307Z,23.56
2018-10-06T12:04:47.284Z,23.51
2018-10-06T12:09:51.828Z,24.15
2018-10-06T12:14:55.026Z,24.63
2018-10-06T12:19:58.235Z,25.08
2018-10-06T12:25:01.511Z,25.13
2018-10-06T12:30:05.366Z,25.55
2018-10-06T12:35:08.624Z,25.24
2018-10-06T12:40:12.373Z,25.08
2018-10-06T12:45:15.671Z,24.90
2018-10-06T12:50:18.838Z,24.78
2018-10-06T12:55:22.174Z,24.83
2018-10-06T13:00:25.489Z,24.87
2018-10-06T13:05:28.735Z,24.80
2018-10-06T13:10:32.207Z,24.49
2018-10-06T13:15:35.437Z,24.94
2018-10-06T13:20:38.891Z,24.69
2018-10-06T13:25:42.106Z,24.43
2018-10-06T13:30:45.317Z,24.38
2018-10-06T13:35:48.532Z,24.27
2018-10-06T13:40:51.738Z,24.25
2018-10-06T13:45:54.866Z,24.66
2018-10-06T13:50:58.028Z,24.74
2018-10-06T13:56:01.228Z,25.22
2018-10-06T14:01:04.757Z,25.38
2018-10-06T14:06:08.561Z,24.41
2018-10-06T14:11:11.833Z,23.91
2018-10-06T14:16:15.318Z,23.79
2018-10-06T14:21:18.556Z,24.48
2018-10-06T14:26:22.024Z,25.19
2018-10-06T14:31:25.184Z,25.00
2018-10-06T14:36:28.425Z,24.75
2018-10-06T14:41:31.620Z,24.13
2018-10-06T14:46:35.084Z,23.68
2018-10-06T14:51:38.611Z,23.27
2018-10-06T14:56:42.249Z,23.00
2018-10-06T15:01:46.426Z,22.82
2018-10-06T15:06:49.941Z,22.49
2018-10-06T15:11:54.296Z,22.31
2018-10-06T15:16:58.477Z,22.17
2018-10-06T15:22:02.182Z,21.95
2018-10-06T15:27:06.237Z,21.65
2018-10-06T15:32:09.484Z,21.45
2018-10-06T15:37:12.821Z,21.26
2018-10-06T15:42:16.184Z,21.06
2018-10-06T15:47:19.721Z,20.79
2018-10-06T15:52:22.850Z,20.47
2018-10-06T15:57:26.015Z,20.13
2018-10-06T16:02:29.493Z,20.01
2018-10-06T16:07:32.677Z,19.90
2018-10-06T16:12:35.766Z,19.73
2018-10-06T16:17:39.529Z,19.54
2018-10-06T16:22:42.893Z,19.34
2018-10-06T16:27:46.198Z,19.12
2018-10-06T16:32:49.431Z,18.91
2018-10-06T16:37:52.702Z,18.79
2018-10-06T16:42:56.090Z,18.61
2018-10-06T16:47:59.314Z,18.38
2018-10-06T16:53:02.504Z,18.07
2018-10-06T16:58:06.362Z,17.75
2018-10-06T17:03:10.006Z,17.53
2018-10-06T17:08:13.234Z,17.24
2018-10-06T17:13:16.779Z,17.01
2018-10-06T17:18:21.135Z,16.82
2018-10-06T17:23:24.373Z,16.68
2018-10-06T17:28:27.816Z,16.51
2018-10-06T17:33:31.904Z,16.29
2018-10-06T17:38:35.638Z,16.10
2018-10-06T17:43:39.119Z,15.96
2018-10-06T17:48:42.803Z,15.86
2018-10-06T17:53:46.037Z,15.84
2018-10-06T17:58:49.477Z,15.78
2018-10-06T18:03:52.561Z,15.70
2018-10-06T18:08:55.941Z,15.65
2018-10-06T18:13:59.074Z,15.59
2018-10-06T18:19:02.243Z,15.57
2018-10-06T18:24:06.004Z,15.51
2018-10-06T18:29:10.173Z,15.44
2018-10-06T18:34:13.416Z,15.42
2018-10-06T18:39:16.590Z,15.36
2018-10-06T18:44:20.078Z,15.28
2018-10-06T18:49:23.373Z,15.23
2018-10-06T18:54:26.517Z,15.17
2018-10-06T18:59:29.941Z,15.24
2018-10-06T19:04:33.383Z,15.27
2018-10-06T19:09:36.768Z,15.17
2018-10-06T19:14:40.938Z,15.06
2018-10-06T19:19:46.066Z,15.07
2018-10-06T19:24:50.991Z,15.16
2018-10-06T19:29:55.347Z,15.23
2018-10-06T19:34:59.533Z,15.24
2018-10-06T19:40:04.661Z,15.24
2018-10-06T19:45:10.123Z,15.11
2018-10-06T19:50:16.189Z,14.99
2018-10-06T19:55:21.328Z,14.82
2018-10-06T20:00:26.330Z,14.84
2018-10-06T20:05:29.780Z,14.88
2018-10-06T20:10:33.775Z,14.90
2018-10-06T20:15:38.791Z,15.02
2018-10-06T20:20:42.750Z,14.96
2018-10-06T20:25:46.543Z,14.78
2018-10-06T20:30:50.464Z,14.80
2018-10-06T20:35:55.623Z,15.06
2018-10-06T20:40:59.113Z,15.30
2018-10-06T20:46:02.248Z,15.48
2018-10-06T20:51:05.442Z,15.64
2018-10-06T20:56:09.115Z,15.62
2018-10-06T21:01:12.385Z,15.48
2018-10-06T21:06:15.689Z,15.48
2018-10-06T21:11:19.219Z,15.58
2018-10-06T21:16:22.559Z,15.65
2018-10-06T21:21:26.476Z,15.82
2018-10-06T21:26:30.391Z,15.91
2018-10-06T21:31:35.076Z,15.85
2018-10-06T21:36:39.254Z,15.80
2018-10-06T21:41:43.578Z,15.67
2018-10-06T21:46:48.719Z,15.71
2018-10-06T21:51:52.169Z,15.78
2018-10-06T21:56:56.431Z,15.80
2018-10-06T22:02:01.356Z,15.81
2018-10-06T22:07:06.458Z,15.61
2018-10-06T22:12:11.589Z,15.43
2018-10-06T22:17:14.817Z,15.26
2018-10-06T22:22:18.820Z,15.12
2018-10-06T22:27:22.126Z,15.06
2018-10-06T22:32:25.313Z,15.04
2018-10-06T22:37:28.488Z,15.01
2018-10-06T22:42:41.866Z,14.91
2018-10-06T22:47:45.826Z,14.91
2018-10-06T22:52:49.550Z,14.90
2018-10-06T22:57:52.722Z,14.76
2018-10-06T23:02:55.916Z,14.56
2018-10-06T23:07:59.326Z,14.42
2018-10-06T23:13:03.261Z,14.24
2018-10-06T23:18:06.835Z,14.02
2018-10-06T23:23:10.604Z,13.85
2018-10-06T23:28:13.997Z,13.74
2018-10-06T23:33:17.776Z,13.63
2018-10-06T23:38:20.910Z,13.44
2018-10-06T23:43:24.080Z,13.30
2018-10-06T23:48:27.601Z,13.19
2018-10-06T23:53:31.081Z,13.04
2018-10-06T23:58:34.697Z,12.81
